Time;durP1;ratioP1;P1;durP2;ratioP2;P2;SDS_P1;SDS_P2;PMS_P1;PMS_P2;Temp;Humidity;BMP_temperature;BMP_pressure;BME280_temperature;BME280_humidity;BME280_pressure;Samples;Min_cycle;Max_cycle;Signal;HPM_P1;HPM_P2
2021/12/29 00:00:44;;;;;;;11.43;2.40;;;8.00;99.90;;;;;;5032116;28;20195;-78
2021/12/29 00:03:10;;;;;;;11.07;2.43;;;8.00;99.90;;;;;;5031519;28;20204;-77
2021/12/29 00:05:36;;;;;;;7.83;1.53;;;8.10;99.90;;;;;;5031592;28;20187;-78
2021/12/29 00:08:03;;;;;;;13.93;2.10;;;8.00;99.90;;;;;;5031163;28;20436;-78
2021/12/29 00:10:29;;;;;;;6.07;2.00;;;8.10;99.90;;;;;;5031305;28;20256;-77
2021/12/29 00:12:55;;;;;;;4.93;1.90;;;8.20;99.90;;;;;;5031270;28;20570;-77
2021/12/29 00:15:27;;;;;;;9.27;2.17;;;8.10;99.90;;;;;;5031070;28;20436;-77
2021/12/29 00:17:55;;;;;;;14.33;2.17;;;8.10;99.90;;;;;;5030641;28;20451;-76
2021/12/29 00:20:28;;;;;;;8.90;1.50;;;8.10;99.90;;;;;;5030602;28;20408;-77
2021/12/29 00:23:03;;;;;;;8.00;1.93;;;8.10;99.90;;;;;;5030957;28;20510;-76
2021/12/29 00:25:30;;;;;;;7.00;1.80;;;8.10;99.90;;;;;;5031488;28;20525;-78
2021/12/29 00:27:58;;;;;;;14.77;1.60;;;8.10;99.90;;;;;;5032307;28;20528;-78
2021/12/29 00:30:24;;;;;;;10.03;2.93;;;8.20;99.90;;;;;;5030598;28;20920;-77
2021/12/29 00:32:50;;;;;;;13.70;2.00;;;8.10;99.90;;;;;;5029804;28;20426;-78
2021/12/29 00:35:16;;;;;;;7.60;2.43;;;8.10;99.90;;;;;;5030634;28;20608;-76
2021/12/29 00:37:43;;;;;;;7.07;1.80;;;8.10;99.90;;;;;;5029017;28;20469;-77
2021/12/29 00:40:09;;;;;;;14.00;1.90;;;8.10;99.90;;;;;;5029346;28;20964;-78
2021/12/29 00:42:35;;;;;;;5.03;1.70;;;8.00;99.90;;;;;;5029460;28;20490;-78
2021/12/29 00:45:02;;;;;;;5.67;1.30;;;8.00;99.90;;;;;;5030298;28;21101;-77
2021/12/29 00:47:30;;;;;;;5.00;1.53;;;8.00;99.90;;;;;;5030034;28;20237;-77
2021/12/29 00:49:58;;;;;;;11.47;1.50;;;8.00;99.90;;;;;;5028978;28;20428;-76
2021/12/29 00:52:24;;;;;;;8.40;1.13;;;8.00;99.90;;;;;;5030660;28;20439;-77
2021/12/29 00:54:49;;;;;;;8.03;2.03;;;8.00;99.90;;;;;;5030915;28;20426;-78
2021/12/29 00:57:15;;;;;;;10.20;2.37;;;8.10;99.90;;;;;;5029185;28;20191;-77
2021/12/29 00:59:41;;;;;;;8.50;1.97;;;8.10;99.90;;;;;;5028904;28;20197;-77
2021/12/29 01:02:06;;;;;;;6.53;1.37;;;8.10;99.90;;;;;;5030385;28;20211;-78
2021/12/29 01:04:33;;;;;;;8.90;1.70;;;8.10;99.90;;;;;;5030425;28;20335;-76
2021/12/29 01:06:58;;;;;;;10.63;2.00;;;8.20;99.90;;;;;;5030273;28;20259;-78
2021/12/29 01:09:24;;;;;;;16.53;1.73;;;8.10;99.90;;;;;;5028998;28;20556;-77
2021/12/29 01:11:54;;;;;;;7.83;1.97;;;8.10;99.90;;;;;;5028535;28;20184;-77
2021/12/29 01:14:22;;;;;;;10.77;2.10;;;8.10;99.90;;;;;;5030532;28;21038;-76
2021/12/29 01:16:49;;;;;;;7.37;1.60;;;8.10;99.90;;;;;;5029868;28;20521;-76
2021/12/29 01:19:24;;;;;;;11.33;1.90;;;8.10;99.90;;;;;;5028572;28;20509;-78
2021/12/29 01:21:53;;;;;;;4.83;1.20;;;8.10;99.90;;;;;;5029827;28;20767;-77
2021/12/29 01:24:25;;;;;;;9.47;1.60;;;8.10;99.90;;;;;;5028043;28;21057;-77
2021/12/29 01:26:51;;;;;;;13.73;1.60;;;8.10;99.90;;;;;;5029829;28;20411;-76
2021/12/29 01:29:17;;;;;;;11.30;1.60;;;8.10;99.90;;;;;;5029331;28;20443;-76
2021/12/29 01:31:44;;;;;;;10.57;1.70;;;8.10;99.90;;;;;;5028397;28;20192;-77
2021/12/29 01:34:13;;;;;;;6.33;1.40;;;8.30;99.90;;;;;;5029464;28;20469;-77
2021/12/29 01:36:39;;;;;;;4.87;1.30;;;8.10;99.90;;;;;;5028014;28;20457;-77
2021/12/29 01:39:08;;;;;;;3.83;1.37;;;8.10;99.90;;;;;;5029209;28;20478;-76
2021/12/29 01:41:34;;;;;;;11.30;1.83;;;8.10;99.90;;;;;;5028951;28;20442;-78
2021/12/29 01:44:01;;;;;;;5.97;1.40;;;8.10;99.90;;;;;;5029546;28;20462;-78
2021/12/29 01:46:27;;;;;;;4.83;1.57;;;8.10;99.90;;;;;;5029139;28;20415;-77
2021/12/29 01:48:52;;;;;;;4.03;1.40;;;8.20;99.90;;;;;;5029117;28;20444;-77
2021/12/29 01:51:20;;;;;;;19.00;1.40;;;8.10;99.90;;;;;;5028845;28;20200;-77
2021/12/29 01:53:50;;;;;;;6.57;1.33;;;8.20;99.90;;;;;;5029093;28;20680;-77
2021/12/29 01:56:16;;;;;;;4.10;0.93;;;8.10;99.90;;;;;;5029003;28;20423;-77
2021/12/29 01:58:42;;;;;;;4.20;1.47;;;8.10;99.90;;;;;;5029053;28;20430;-77
2021/12/29 02:01:08;;;;;;;2.13;1.10;;;8.10;99.90;;;;;;5027718;28;20423;-77
2021/12/29 02:03:34;;;;;;;5.70;1.20;;;8.10;99.90;;;;;;5011558;28;20216;-78
2021/12/29 02:06:00;;;;;;;5.60;1.17;;;8.10;99.90;;;;;;5029076;28;20181;-77
2021/12/29 02:08:26;;;;;;;4.20;1.60;;;8.10;99.90;;;;;;5029283;28;20439;-76
2021/12/29 02:10:55;;;;;;;4.97;1.20;;;8.10;99.90;;;;;;5028980;28;20184;-76
2021/12/29 02:13:20;;;;;;;2.70;1.17;;;8.00;99.90;;;;;;5028954;28;20427;-76
2021/12/29 02:15:47;;;;;;;3.47;1.30;;;8.00;99.90;;;;;;5028853;28;20440;-76
2021/12/29 02:18:14;;;;;;;3.60;0.87;;;8.00;99.90;;;;;;5028905;28;20212;-77
2021/12/29 02:20:45;;;;;;;3.03;0.87;;;8.00;99.90;;;;;;5027502;28;20442;-77
2021/12/29 02:23:14;;;;;;;4.43;0.90;;;8.00;99.90;;;;;;5028839;28;20461;-76
2021/12/29 02:25:49;;;;;;;3.10;0.93;;;8.00;99.90;;;;;;5027446;28;20955;-77
2021/12/29 02:28:22;;;;;;;3.90;0.97;;;8.00;99.90;;;;;;5028626;28;20435;-78
2021/12/29 02:30:48;;;;;;;4.77;0.80;;;8.00;99.90;;;;;;5028713;28;20435;-77
2021/12/29 02:33:15;;;;;;;5.60;1.30;;;8.00;99.90;;;;;;5028699;28;20789;-77
2021/12/29 02:35:42;;;;;;;3.87;0.80;;;8.00;99.90;;;;;;5028771;28;20192;-78
2021/12/29 02:38:17;;;;;;;4.27;1.27;;;8.00;99.90;;;;;;5027516;28;20447;-77
2021/12/29 02:40:43;;;;;;;3.80;1.03;;;8.00;99.90;;;;;;5028770;28;20431;-77
2021/12/29 02:43:12;;;;;;;10.63;1.27;;;8.00;99.90;;;;;;5028662;28;20506;-77
2021/12/29 02:45:38;;;;;;;13.30;1.63;;;8.00;99.90;;;;;;5028962;28;20203;-77
2021/12/29 02:48:06;;;;;;;5.63;1.03;;;8.00;99.90;;;;;;5029099;28;21077;-77
2021/12/29 02:50:32;;;;;;;3.63;1.03;;;8.00;99.90;;;;;;5028894;28;20196;-76
2021/12/29 02:52:57;;;;;;;5.87;1.20;;;8.00;99.90;;;;;;5029252;28;20428;-78
2021/12/29 02:55:23;;;;;;;2.67;0.90;;;8.00;99.90;;;;;;5032731;28;20247;-76
2021/12/29 02:57:49;;;;;;;7.50;1.90;;;8.00;99.90;;;;;;5032748;28;20200;-77
2021/12/29 03:00:15;;;;;;;7.90;1.60;;;8.00;99.90;;;;;;5031140;28;20204;-76
2021/12/29 03:02:41;;;;;;;8.20;1.50;;;7.90;99.90;;;;;;5031182;28;20216;-77
2021/12/29 03:05:07;;;;;;;2.33;0.73;;;8.00;99.90;;;;;;5032230;28;20483;-76
2021/12/29 03:07:32;;;;;;;5.03;1.00;;;8.00;99.90;;;;;;5030605;28;20921;-76
2021/12/29 03:09:58;;;;;;;2.20;0.90;;;7.90;99.90;;;;;;5030393;28;20427;-75
2021/12/29 03:12:24;;;;;;;4.60;0.90;;;7.90;99.90;;;;;;5031748;28;20454;-75
2021/12/29 03:14:56;;;;;;;4.10;1.23;;;7.90;99.90;;;;;;5031614;28;20713;-77
2021/12/29 03:17:21;;;;;;;3.73;1.10;;;8.00;99.90;;;;;;5031685;28;20159;-77
2021/12/29 03:19:47;;;;;;;4.97;1.30;;;7.90;99.90;;;;;;5031611;28;20442;-77
2021/12/29 03:22:13;;;;;;;13.33;1.57;;;7.90;99.90;;;;;;5029948;28;20561;-76
2021/12/29 03:24:39;;;;;;;6.73;1.40;;;8.00;99.90;;;;;;5030117;28;20429;-77
2021/12/29 03:27:05;;;;;;;4.23;1.17;;;8.00;99.90;;;;;;5031523;28;20481;-77
2021/12/29 03:29:31;;;;;;;4.70;1.13;;;8.00;99.90;;;;;;5031240;28;20920;-77
2021/12/29 03:31:59;;;;;;;4.17;1.40;;;8.00;99.90;;;;;;5030014;28;20557;-77
2021/12/29 03:34:24;;;;;;;8.80;1.47;;;8.00;99.90;;;;;;5013788;28;20196;-78
2021/12/29 03:36:50;;;;;;;4.10;0.90;;;7.90;99.90;;;;;;5029782;28;20451;-77
2021/12/29 03:39:17;;;;;;;4.23;0.73;;;7.90;99.90;;;;;;5031289;28;20234;-77
2021/12/29 03:41:42;;;;;;;5.73;1.27;;;8.00;99.90;;;;;;5031152;28;20176;-77
2021/12/29 03:44:08;;;;;;;5.37;0.90;;;8.10;99.90;;;;;;5031151;28;20835;-77
2021/12/29 03:46:36;;;;;;;3.33;1.00;;;7.90;99.90;;;;;;5031230;28;20191;-77
2021/12/29 03:49:02;;;;;;;5.30;1.60;;;8.00;99.90;;;;;;5029528;28;20636;-78
2021/12/29 03:51:27;;;;;;;8.30;1.10;;;8.00;99.90;;;;;;5031054;28;20446;-77
2021/12/29 03:53:54;;;;;;;7.10;1.10;;;8.00;99.90;;;;;;5031440;28;21260;-77
2021/12/29 03:56:20;;;;;;;9.73;1.20;;;8.00;99.90;;;;;;5032705;28;20483;-77
2021/12/29 03:58:45;;;;;;;7.50;1.10;;;8.00;99.90;;;;;;5032341;28;20216;-78
2021/12/29 04:01:13;;;;;;;7.30;1.17;;;8.00;99.90;;;;;;5032430;28;20189;-77
2021/12/29 04:03:42;;;;;;;1.83;0.70;;;8.10;99.90;;;;;;5031335;28;20208;-78
2021/12/29 04:06:08;;;;;;;7.03;1.30;;;8.10;99.90;;;;;;5029899;28;20443;-77
2021/12/29 04:08:34;;;;;;;5.63;1.10;;;8.10;99.90;;;;;;5030782;28;20438;-77
2021/12/29 04:10:59;;;;;;;3.40;1.10;;;8.30;99.90;;;;;;5013092;28;20419;-77
2021/12/29 04:13:25;;;;;;;4.03;1.00;;;8.10;99.90;;;;;;5030800;28;20564;-78
2021/12/29 04:15:51;;;;;;;5.13;0.90;;;8.20;99.90;;;;;;5030654;28;20242;-77
2021/12/29 04:18:26;;;;;;;2.10;1.03;;;8.10;99.90;;;;;;5030848;28;20525;-77
2021/12/29 04:20:57;;;;;;;1.40;0.73;;;8.10;99.90;;;;;;5030358;28;20861;-76
2021/12/29 04:23:34;;;;;;;3.90;0.83;;;8.10;99.90;;;;;;5030428;28;20463;-77
2021/12/29 04:26:02;;;;;;;3.30;0.70;;;8.20;99.90;;;;;;5029434;28;20929;-75
2021/12/29 04:28:29;;;;;;;3.53;0.90;;;8.10;99.90;;;;;;5030342;28;20435;-75
2021/12/29 04:31:06;;;;;;;7.23;1.17;;;8.10;99.90;;;;;;5030336;28;20858;-75
2021/12/29 04:33:32;;;;;;;4.20;0.97;;;8.20;99.90;;;;;;5030214;28;20451;-75
2021/12/29 04:35:58;;;;;;;1.63;0.60;;;8.20;99.90;;;;;;5028834;28;20458;-76
2021/12/29 04:38:25;;;;;;;3.00;0.90;;;8.20;99.90;;;;;;5030076;28;20546;-76
2021/12/29 04:40:52;;;;;;;3.07;0.90;;;8.20;99.90;;;;;;5030121;28;20423;-76
2021/12/29 04:43:18;;;;;;;2.80;0.50;;;8.20;99.90;;;;;;5030098;28;20883;-76
2021/12/29 04:45:45;;;;;;;5.43;0.93;;;8.20;99.90;;;;;;5030019;28;20959;-76
2021/12/29 04:48:13;;;;;;;3.27;0.57;;;8.20;99.90;;;;;;5028573;28;21053;-76
2021/12/29 04:50:51;;;;;;;4.67;1.00;;;8.30;99.90;;;;;;5028427;28;20921;-76
2021/12/29 04:53:18;;;;;;;4.77;0.90;;;8.30;99.90;;;;;;5030007;28;20504;-77
2021/12/29 04:55:47;;;;;;;7.13;0.90;;;8.20;99.90;;;;;;5028444;28;20434;-76
2021/12/29 04:58:13;;;;;;;3.47;1.03;;;8.30;99.90;;;;;;5028330;28;20467;-76
2021/12/29 05:00:39;;;;;;;4.30;0.90;;;8.30;99.90;;;;;;5028504;28;20435;-75
2021/12/29 05:03:05;;;;;;;2.53;0.50;;;8.40;99.90;;;;;;5029874;28;20912;-76
2021/12/29 05:10:43;;;;;;;5.23;0.63;;;8.40;99.90;;;;;;5030116;28;20441;-76
2021/12/29 05:13:09;;;;;;;2.47;0.90;;;8.40;99.90;;;;;;5030204;28;20424;-76
2021/12/29 05:15:34;;;;;;;3.77;0.90;;;8.40;99.90;;;;;;5028516;28;20609;-75
2021/12/29 05:18:01;;;;;;;1.30;0.50;;;8.40;99.90;;;;;;5029970;28;20470;-76
2021/12/29 05:20:28;;;;;;;1.50;0.50;;;8.40;99.90;;;;;;5030248;28;20192;-75
2021/12/29 05:22:55;;;;;;;2.70;0.60;;;8.40;99.90;;;;;;5029932;28;20510;-75
2021/12/29 05:25:21;;;;;;;2.53;0.77;;;8.40;99.90;;;;;;5028421;28;20427;-76
2021/12/29 05:27:47;;;;;;;2.30;0.53;;;8.40;99.90;;;;;;5030099;28;20488;-75
2021/12/29 05:30:13;;;;;;;13.63;1.27;;;8.40;99.90;;;;;;5030265;28;20411;-77
2021/12/29 05:32:39;;;;;;;5.17;0.70;;;8.30;99.90;;;;;;5029407;28;20427;-77
2021/12/29 05:35:05;;;;;;;4.77;0.83;;;8.30;99.90;;;;;;5029236;28;20660;-76
2021/12/29 05:37:31;;;;;;;1.20;0.70;;;8.30;99.90;;;;;;5029317;28;20189;-76
2021/12/29 05:39:56;;;;;;;4.10;0.80;;;8.20;99.90;;;;;;5028101;28;20928;-77
2021/12/29 05:42:22;;;;;;;1.63;0.40;;;8.20;99.90;;;;;;5029465;28;20194;-78
2021/12/29 05:44:48;;;;;;;3.53;0.60;;;8.20;99.90;;;;;;5031722;28;20199;-80
2021/12/29 05:47:14;;;;;;;7.07;0.90;;;8.20;99.90;;;;;;4996641;28;20185;-76
2021/12/29 05:49:39;;;;;;;3.80;0.70;;;8.20;99.90;;;;;;5028065;28;20234;-77
2021/12/29 05:52:05;;;;;;;2.90;0.50;;;8.10;99.90;;;;;;5027538;28;20196;-77
2021/12/29 05:54:32;;;;;;;1.53;0.50;;;8.10;99.90;;;;;;5028748;28;20188;-76
2021/12/29 05:56:58;;;;;;;2.57;0.67;;;8.10;99.90;;;;;;5028972;28;20177;-76
2021/12/29 05:59:23;;;;;;;4.20;0.97;;;8.10;99.90;;;;;;5027545;28;20504;-75
2021/12/29 06:01:49;;;;;;;2.70;0.60;;;8.10;99.90;;;;;;5028749;28;20427;-75
2021/12/29 06:04:15;;;;;;;2.53;0.70;;;8.00;99.90;;;;;;5028798;28;20250;-75
2021/12/29 06:06:41;;;;;;;3.17;0.60;;;8.00;99.90;;;;;;5028567;28;20947;-76
2021/12/29 06:09:07;;;;;;;1.00;0.60;;;7.90;99.90;;;;;;5028770;28;20200;-76
2021/12/29 06:11:33;;;;;;;2.60;0.60;;;8.00;99.90;;;;;;5028583;28;20428;-76
2021/12/29 06:13:59;;;;;;;4.90;0.90;;;8.00;99.90;;;;;;5028706;28;20526;-76
2021/12/29 06:16:25;;;;;;;7.70;0.60;;;8.00;99.90;;;;;;5035582;28;20196;-76
2021/12/29 06:18:51;;;;;;;2.93;0.60;;;8.00;99.90;;;;;;5039404;28;20455;-76
2021/12/29 06:21:17;;;;;;;2.93;0.70;;;7.90;99.90;;;;;;5028837;28;20784;-76
2021/12/29 06:23:44;;;;;;;1.10;0.60;;;7.90;99.90;;;;;;5027584;28;20288;-75
2021/12/29 06:26:11;;;;;;;4.10;0.73;;;8.00;99.90;;;;;;5028934;28;20184;-76
2021/12/29 06:28:36;;;;;;;3.10;0.70;;;8.00;99.90;;;;;;5032007;28;20458;-77
2021/12/29 06:31:02;;;;;;;2.00;0.50;;;8.00;99.90;;;;;;5033286;28;20793;-75
2021/12/29 06:33:28;;;;;;;4.60;0.87;;;8.00;99.90;;;;;;5031901;28;20189;-76
2021/12/29 06:35:54;;;;;;;1.53;0.60;;;7.90;99.90;;;;;;5033136;28;20418;-74
2021/12/29 06:38:20;;;;;;;3.60;0.80;;;7.90;99.90;;;;;;5031720;28;20286;-78
2021/12/29 06:40:45;;;;;;;1.43;0.60;;;7.90;99.90;;;;;;5033049;28;20186;-76
2021/12/29 06:43:11;;;;;;;3.27;0.73;;;7.90;99.90;;;;;;5032880;28;20270;-76
2021/12/29 06:45:37;;;;;;;1.83;0.53;;;8.00;99.90;;;;;;5033005;28;20215;-76
2021/12/29 06:48:02;;;;;;;5.73;0.60;;;8.00;99.90;;;;;;5014795;28;20680;-74
2021/12/29 06:50:28;;;;;;;1.53;0.60;;;7.80;99.90;;;;;;5032538;28;20522;-75
2021/12/29 06:52:55;;;;;;;2.30;0.60;;;7.90;99.90;;;;;;5032245;28;20835;-79
2021/12/29 06:55:20;;;;;;;1.37;0.40;;;7.80;99.90;;;;;;5033798;28;20239;-79
2021/12/29 06:57:46;;;;;;;2.13;0.60;;;7.90;99.90;;;;;;5033142;28;20438;-78
2021/12/29 07:00:13;;;;;;;1.47;0.50;;;7.90;99.90;;;;;;5015359;28;20195;-79
2021/12/29 07:02:39;;;;;;;4.53;0.60;;;7.90;99.90;;;;;;5033245;28;20635;-78
2021/12/29 07:05:05;;;;;;;1.63;0.70;;;7.90;99.90;;;;;;5033454;28;20421;-78
2021/12/29 07:07:31;;;;;;;2.40;0.77;;;7.90;99.90;;;;;;4998865;28;20191;-78
2021/12/29 07:09:57;;;;;;;0.77;0.53;;;7.90;99.90;;;;;;5032636;28;20423;-78
2021/12/29 07:12:23;;;;;;;2.90;0.83;;;8.00;99.90;;;;;;5032980;28;20658;-78
2021/12/29 07:14:48;;;;;;;3.03;0.60;;;7.90;99.90;;;;;;5033048;28;20260;-78
2021/12/29 07:17:14;;;;;;;1.17;0.50;;;8.00;99.90;;;;;;5033083;28;20176;-78
2021/12/29 07:19:40;;;;;;;2.70;0.60;;;8.00;99.90;;;;;;5033464;28;20209;-77
2021/12/29 07:22:06;;;;;;;1.20;0.60;;;8.10;99.90;;;;;;5032362;28;20193;-78
2021/12/29 07:24:33;;;;;;;1.97;0.50;;;8.00;99.90;;;;;;5032168;28;20235;-78
2021/12/29 07:26:59;;;;;;;1.13;0.50;;;7.90;99.90;;;;;;5032109;28;20433;-78
2021/12/29 07:29:24;;;;;;;2.33;1.40;;;8.00;99.90;;;;;;5033456;28;20435;-78
2021/12/29 07:31:50;;;;;;;7.30;0.90;;;8.00;99.90;;;;;;5033024;28;20411;-78
2021/12/29 07:34:16;;;;;;;6.17;0.63;;;8.00;99.90;;;;;;5015074;28;20960;-77
2021/12/29 07:36:42;;;;;;;1.40;0.50;;;8.00;99.90;;;;;;5031456;28;20191;-78
2021/12/29 07:39:10;;;;;;;2.73;0.60;;;8.00;99.90;;;;;;5032007;28;20439;-78
2021/12/29 07:41:36;;;;;;;2.50;0.80;;;8.00;99.90;;;;;;5032754;28;20176;-78
2021/12/29 07:44:04;;;;;;;1.13;0.60;;;8.00;99.90;;;;;;5033742;28;20467;-78
2021/12/29 07:46:33;;;;;;;2.50;0.60;;;8.00;99.90;;;;;;5032990;28;20457;-78
2021/12/29 07:49:02;;;;;;;5.53;0.60;;;8.00;99.90;;;;;;5032388;28;20959;-78
2021/12/29 07:51:29;;;;;;;1.03;0.50;;;8.00;99.90;;;;;;5032132;28;20983;-78
2021/12/29 07:53:54;;;;;;;3.60;0.93;;;8.00;99.90;;;;;;5031371;28;20429;-78
2021/12/29 07:56:20;;;;;;;1.07;0.67;;;8.10;99.90;;;;;;5032589;28;20419;-78
2021/12/29 07:58:46;;;;;;;2.03;0.50;;;8.10;99.90;;;;;;5032471;28;20600;-78
2021/12/29 08:01:11;;;;;;;5.73;0.60;;;8.20;99.90;;;;;;5031287;28;20234;-78
2021/12/29 08:03:39;;;;;;;2.93;0.70;;;8.20;99.90;;;;;;5031220;28;20207;-78
2021/12/29 08:06:05;;;;;;;4.40;0.73;;;8.30;99.90;;;;;;5032530;28;20184;-78
2021/12/29 08:08:31;;;;;;;2.30;0.70;;;8.20;99.90;;;;;;5032401;28;20435;-77
2021/12/29 08:10:57;;;;;;;6.10;0.43;;;8.20;99.90;;;;;;5032101;28;20512;-77
2021/12/29 08:13:22;;;;;;;4.30;0.70;;;8.20;99.90;;;;;;5031054;28;20184;-77
2021/12/29 08:15:48;;;;;;;5.43;0.80;;;8.20;99.90;;;;;;5031334;28;20196;-78
2021/12/29 08:18:14;;;;;;;2.07;0.80;;;8.20;99.90;;;;;;5031230;28;20200;-77
2021/12/29 08:20:40;;;;;;;6.10;1.10;;;8.30;99.90;;;;;;5031354;28;20409;-78
2021/12/29 08:23:07;;;;;;;1.30;0.67;;;8.30;99.90;;;;;;5031194;28;20650;-77
2021/12/29 08:25:33;;;;;;;3.73;0.87;;;8.30;99.90;;;;;;5031145;28;20494;-76
2021/12/29 08:27:59;;;;;;;1.43;0.60;;;8.30;99.90;;;;;;5029517;28;20447;-78
2021/12/29 08:30:26;;;;;;;3.43;0.87;;;8.30;99.90;;;;;;5031282;28;20938;-77
2021/12/29 08:32:52;;;;;;;2.27;0.70;;;8.40;99.90;;;;;;5030761;28;20451;-78
2021/12/29 08:35:18;;;;;;;1.10;0.70;;;8.40;99.90;;;;;;5029334;28;20458;-78
2021/12/29 08:37:43;;;;;;;1.53;0.60;;;8.40;99.90;;;;;;5012655;28;20217;-78
2021/12/29 08:40:10;;;;;;;6.47;1.37;;;8.40;99.90;;;;;;5029289;28;20201;-78
2021/12/29 08:42:37;;;;;;;1.83;0.60;;;8.40;99.90;;;;;;5028965;28;20427;-78
2021/12/29 08:45:08;;;;;;;2.23;0.90;;;8.50;99.90;;;;;;5030615;28;20414;-78
2021/12/29 08:47:34;;;;;;;1.67;0.67;;;8.50;99.90;;;;;;5030357;28;20881;-78
2021/12/29 08:49:59;;;;;;;5.53;0.83;;;8.50;99.90;;;;;;5028584;28;20423;-77
2021/12/29 08:52:25;;;;;;;1.93;0.60;;;8.40;99.90;;;;;;5012317;28;20443;-78
2021/12/29 08:54:51;;;;;;;1.07;0.60;;;8.50;99.90;;;;;;5030642;28;20192;-79
2021/12/29 08:57:17;;;;;;;1.63;0.67;;;8.60;99.90;;;;;;5030353;28;20634;-78
2021/12/29 08:59:43;;;;;;;3.67;0.50;;;8.60;99.90;;;;;;5030309;28;20439;-77
2021/12/29 09:02:09;;;;;;;2.40;0.60;;;8.60;99.90;;;;;;5030132;28;20836;-79
2021/12/29 09:04:35;;;;;;;2.30;0.80;;;8.60;99.90;;;;;;5029730;28;20216;-78
2021/12/29 09:07:00;;;;;;;3.70;0.90;;;8.60;99.90;;;;;;5030078;28;20442;-78
2021/12/29 09:09:26;;;;;;;1.53;0.60;;;8.60;99.90;;;;;;5029948;28;20207;-78
2021/12/29 09:11:53;;;;;;;4.47;1.10;;;8.70;99.90;;;;;;5030268;28;20261;-78
2021/12/29 09:14:19;;;;;;;5.57;0.97;;;8.70;99.90;;;;;;5028846;28;20188;-77
2021/12/29 09:16:46;;;;;;;4.03;0.70;;;8.80;99.90;;;;;;5029588;28;20786;-77
2021/12/29 09:19:13;;;;;;;5.30;1.33;;;8.80;99.90;;;;;;5029664;28;20450;-77
2021/12/29 09:21:43;;;;;;;6.87;1.00;;;8.80;99.90;;;;;;5029336;28;20514;-78
2021/12/29 09:24:10;;;;;;;2.73;0.70;;;8.90;99.90;;;;;;5029255;28;20846;-77
2021/12/29 09:26:35;;;;;;;1.90;0.63;;;8.90;99.90;;;;;;5028195;28;20916;-78
2021/12/29 09:29:02;;;;;;;5.97;0.80;;;9.00;99.90;;;;;;5011634;28;20451;-79
2021/12/29 09:31:27;;;;;;;1.43;0.60;;;9.20;99.90;;;;;;5028700;28;20330;-79
2021/12/29 09:33:53;;;;;;;1.50;0.50;;;9.30;99.90;;;;;;5028417;28;20522;-78
2021/12/29 09:36:19;;;;;;;3.93;1.10;;;9.50;99.90;;;;;;5030133;28;20195;-78
2021/12/29 09:38:45;;;;;;;3.43;0.90;;;9.50;99.90;;;;;;5029851;28;20958;-78
2021/12/29 09:41:14;;;;;;;3.20;1.10;;;9.60;99.90;;;;;;5030051;28;20196;-79
2021/12/29 09:43:45;;;;;;;1.50;0.60;;;9.70;99.90;;;;;;5028741;28;20593;-77
2021/12/29 09:46:11;;;;;;;1.30;0.60;;;9.70;99.90;;;;;;5029619;28;20416;-78
2021/12/29 09:48:37;;;;;;;2.20;0.80;;;9.80;99.90;;;;;;5028735;28;20478;-78
2021/12/29 09:51:05;;;;;;;3.13;0.70;;;9.80;99.90;;;;;;5029215;28;20449;-77
2021/12/29 09:53:30;;;;;;;2.27;0.60;;;9.70;99.90;;;;;;5029627;28;20888;-77
2021/12/29 09:55:56;;;;;;;3.47;0.90;;;9.60;99.90;;;;;;5029131;28;20427;-77
2021/12/29 09:58:22;;;;;;;2.33;0.80;;;9.60;99.90;;;;;;5028656;28;20527;-78
2021/12/29 10:00:55;;;;;;;2.33;0.90;;;9.50;99.90;;;;;;5028412;28;20639;-76
2021/12/29 10:03:23;;;;;;;1.37;0.60;;;9.60;99.90;;;;;;5009978;28;20315;-77
2021/12/29 10:05:52;;;;;;;1.63;0.70;;;9.60;99.90;;;;;;5027440;28;20424;-76
2021/12/29 10:08:30;;;;;;;3.40;0.87;;;9.70;99.90;;;;;;5028039;28;20821;-76
2021/12/29 10:11:07;;;;;;;1.93;0.70;;;9.70;99.90;;;;;;5026664;28;20874;-76
2021/12/29 10:13:36;;;;;;;1.27;0.70;;;9.80;99.90;;;;;;5028475;28;20435;-78
2021/12/29 10:16:24;;;;;;;3.30;0.77;;;9.90;99.90;;;;;;5028743;28;20515;-78
2021/12/29 10:19:03;;;;;;;3.00;0.60;;;10.00;99.90;;;;;;5027524;28;20450;-77
2021/12/29 10:21:29;;;;;;;3.47;0.70;;;10.00;99.90;;;;;;5026479;28;20536;-77
2021/12/29 10:23:57;;;;;;;3.47;0.97;;;10.00;99.90;;;;;;5028040;28;20470;-77
2021/12/29 10:26:30;;;;;;;2.90;0.73;;;10.00;99.90;;;;;;5026655;28;20427;-76
2021/12/29 10:29:03;;;;;;;2.20;0.77;;;9.90;99.90;;;;;;5026488;28;20534;-77
2021/12/29 10:31:45;;;;;;;5.30;1.27;;;10.10;99.90;;;;;;5027887;28;20426;-76
2021/12/29 10:34:17;;;;;;;4.97;1.03;;;10.10;99.90;;;;;;5028239;28;20477;-79
2021/12/29 10:36:47;;;;;;;1.80;0.60;;;10.10;99.90;;;;;;5027442;28;20485;-83
2021/12/29 10:39:38;;;;;;;1.10;0.70;;;10.10;99.90;;;;;;5028766;28;20518;-77
2021/12/29 10:42:06;;;;;;;7.63;1.00;;;10.10;99.90;;;;;;5028733;28;20569;-78
2021/12/29 10:44:34;;;;;;;3.80;0.90;;;10.00;99.90;;;;;;5028778;28;20465;-78
2021/12/29 10:47:02;;;;;;;3.33;0.63;;;10.00;99.90;;;;;;5028720;28;20431;-77
2021/12/29 10:49:29;;;;;;;5.50;1.23;;;10.10;99.90;;;;;;5028703;28;20439;-78
2021/12/29 10:51:58;;;;;;;4.00;0.80;;;10.10;99.90;;;;;;5028782;28;20479;-78
2021/12/29 10:54:27;;;;;;;3.93;1.20;;;10.10;99.90;;;;;;5028732;28;20533;-77
2021/12/29 10:57:05;;;;;;;2.80;0.80;;;10.20;99.90;;;;;;5028305;28;20564;-78
2021/12/29 10:59:35;;;;;;;4.63;0.93;;;10.20;99.90;;;;;;5028192;28;20815;-77
2021/12/29 11:02:01;;;;;;;2.23;0.90;;;10.20;99.90;;;;;;5026583;28;20451;-77
2021/12/29 11:04:27;;;;;;;3.23;0.83;;;10.20;99.90;;;;;;5026675;28;20551;-77
2021/12/29 11:06:56;;;;;;;4.93;1.00;;;10.20;99.90;;;;;;5028539;28;20490;-76
2021/12/29 11:09:32;;;;;;;2.57;0.90;;;10.30;99.90;;;;;;5028163;28;20444;-77
2021/12/29 11:12:00;;;;;;;2.80;0.70;;;10.20;99.90;;;;;;5028899;28;20407;-78
2021/12/29 11:14:30;;;;;;;2.77;0.73;;;10.20;99.90;;;;;;5029838;28;20486;-77
2021/12/29 11:17:01;;;;;;;2.40;1.43;;;10.30;99.90;;;;;;5032463;28;20416;-78
2021/12/29 11:19:27;;;;;;;2.03;0.67;;;10.30;99.90;;;;;;5031935;28;20470;-77
2021/12/29 11:22:06;;;;;;;2.70;1.00;;;10.10;99.90;;;;;;5031850;28;20924;-77
2021/12/29 11:24:31;;;;;;;1.83;0.83;;;10.00;99.90;;;;;;5031819;28;20691;-76
2021/12/29 11:26:58;;;;;;;5.03;0.97;;;9.90;99.90;;;;;;5031211;28;20432;-77
2021/12/29 11:29:24;;;;;;;2.80;1.40;;;10.00;99.90;;;;;;5031906;28;20205;-77
2021/12/29 11:31:59;;;;;;;3.30;1.13;;;9.90;99.90;;;;;;5031822;28;20428;-78
2021/12/29 11:34:28;;;;;;;2.37;0.90;;;9.90;99.90;;;;;;5031596;28;20835;-77
2021/12/29 11:37:07;;;;;;;2.57;1.20;;;9.80;99.90;;;;;;5031578;28;20481;-76
2021/12/29 11:39:36;;;;;;;2.93;1.27;;;10.00;99.90;;;;;;5030942;28;20459;-77
2021/12/29 11:42:03;;;;;;;5.87;1.17;;;10.00;99.90;;;;;;5031280;28;21207;-77
2021/12/29 11:44:29;;;;;;;2.10;1.10;;;10.00;99.90;;;;;;5030959;28;20609;-77
2021/12/29 11:46:55;;;;;;;4.87;1.20;;;10.10;99.90;;;;;;5030019;28;20518;-78
2021/12/29 11:49:21;;;;;;;2.10;0.90;;;10.10;99.90;;;;;;5029923;28;20209;-78
2021/12/29 11:52:02;;;;;;;4.87;1.33;;;10.10;99.90;;;;;;5031195;28;20467;-78
2021/12/29 11:54:38;;;;;;;3.73;1.73;;;10.10;99.90;;;;;;5030236;28;20415;-78
2021/12/29 11:57:12;;;;;;;3.70;1.63;;;10.10;99.90;;;;;;5030054;28;20927;-78
2021/12/29 11:59:38;;;;;;;5.00;1.70;;;10.10;99.90;;;;;;5029941;28;20529;-78
2021/12/29 12:02:04;;;;;;;3.40;1.10;;;10.00;99.90;;;;;;5031475;28;20552;-78
2021/12/29 12:04:31;;;;;;;9.13;2.70;;;10.10;99.90;;;;;;5031849;28;20470;-78
2021/12/29 12:07:03;;;;;;;5.87;2.60;;;10.10;99.90;;;;;;5031553;28;20446;-78
2021/12/29 12:09:29;;;;;;;12.40;2.43;;;10.10;99.90;;;;;;5030554;28;20439;-78
2021/12/29 12:12:02;;;;;;;4.60;1.47;;;10.10;99.90;;;;;;5031477;28;20433;-78
2021/12/29 12:14:32;;;;;;;4.93;1.80;;;10.20;99.90;;;;;;5031223;28;20438;-78
2021/12/29 12:17:13;;;;;;;3.77;1.50;;;10.20;99.90;;;;;;5030799;28;20428;-78
2021/12/29 12:19:39;;;;;;;7.23;2.03;;;10.20;99.90;;;;;;5030583;28;20446;-77
2021/12/29 12:22:19;;;;;;;5.43;1.60;;;10.30;99.90;;;;;;5012413;28;20431;-77
2021/12/29 12:24:50;;;;;;;3.70;1.37;;;10.30;99.90;;;;;;5029312;28;20464;-78
2021/12/29 12:27:29;;;;;;;10.63;2.70;;;10.30;99.90;;;;;;5030490;28;20471;-79
2021/12/29 12:30:07;;;;;;;4.50;2.23;;;10.40;99.90;;;;;;5028969;28;20434;-78
2021/12/29 12:32:43;;;;;;;7.20;2.20;;;10.40;99.90;;;;;;5030840;28;20424;-77
2021/12/29 12:35:10;;;;;;;6.17;2.00;;;10.30;99.90;;;;;;5029315;28;20430;-78
2021/12/29 12:37:39;;;;;;;6.03;2.77;;;10.40;99.90;;;;;;5030561;28;20430;-78
2021/12/29 12:40:10;;;;;;;3.30;1.90;;;10.40;99.90;;;;;;5028958;28;20423;-77
2021/12/29 12:42:37;;;;;;;5.90;2.10;;;10.50;99.90;;;;;;5028978;28;20465;-78
2021/12/29 12:45:16;;;;;;;8.97;2.73;;;10.40;99.90;;;;;;5029085;28;20901;-78
2021/12/29 12:47:41;;;;;;;4.40;2.40;;;10.40;99.90;;;;;;5028825;28;21227;-78
2021/12/29 12:50:07;;;;;;;12.07;2.30;;;10.40;99.90;;;;;;5028878;28;20517;-77
2021/12/29 12:52:42;;;;;;;3.47;1.90;;;10.40;99.90;;;;;;5012714;28;20201;-75
2021/12/29 12:55:10;;;;;;;6.07;2.03;;;10.40;99.90;;;;;;5029247;28;20427;-75
2021/12/29 12:57:45;;;;;;;8.53;2.73;;;10.40;99.90;;;;;;5028872;28;20415;-74
2021/12/29 13:00:18;;;;;;;7.23;2.20;;;10.40;99.90;;;;;;5028860;28;20412;-74
2021/12/29 13:02:57;;;;;;;8.10;3.00;;;10.50;99.90;;;;;;5029119;28;20419;-75